Latest Weather Observations for Parafield

IDS60801

Issued at 1:35 pm CST Wednesday 16 April 2014 (issued every 30 minutes, with the page automatically refreshed every 10 minutes)

About weather observations | Map of weather stations | Latest weather observations for SA | Other Formats
Station Details ID: 023013 Name: PARAFIELD AIRPORT Lat: -34.80 Lon: 138.63 Height: 9.5 m
Data from the previous 72 hours. | See also: Recent months at Parafield
Date/Time
CST
Temp
°C
App
Temp
°C
Dew
Point
Rel
Hum
%
Delta-T
°C
Wind Press
QNH
hPa
Press
MSL
hPa
Rain
since 9 am
mm
Dir
 
Spd
km/h
Gust
km/h
Spd
kts
Gust
kts
16/01:30pm 23.0 19.2 7.5 37 8.1 W 17 24 9 13 1019.1 - 0.0
16/01:00pm 23.0 19.7 7.9 38 7.9 NW 15 24 8 13 1019.2 - 0.0
16/12:30pm 22.1 18.8 8.2 41 7.3 WSW 15 22 8 12 1019.6 - 0.0
16/12:00pm 21.9 19.5 8.8 43 6.9 W 11 17 6 9 1020.0 1020.0 0.0
16/11:30am 21.4 18.6 8.7 44 6.7 NW 13 19 7 10 1020.4 - 0.0
16/11:00am 21.2 18.5 9.1 46 6.4 NW 13 19 7 10 1021.0 - 0.0
16/10:30am 20.8 18.7 9.7 49 6.0 NW 11 17 6 9 1021.1 - 0.0
16/10:00am 20.0 18.2 9.6 51 5.5 NNW 9 13 5 7 1020.9 - 0.0
16/09:30am 18.6 15.8 9.9 57 4.6 N 15 17 8 9 1020.6 - 0.0
16/09:00am 17.1 17.3 10.7 66 3.4 CALM 0 7 0 4 1020.9 1020.9 0.0
16/08:30am 14.0 13.9 9.4 74 2.4 CALM 0 0 0 0 1021.2 - 0.0
16/08:00am 12.2 12.2 9.9 86 1.2 CALM 0 0 0 0 1021.0 - 0.0
16/07:30am 10.9 10.9 9.7 92 0.6 CALM 0 0 0 0 1020.6 - 0.0
16/07:00am 9.3 8.9 8.2 93 0.5 CALM 0 0 0 0 1020.6 - 0.0
16/06:30am 8.8 8.3 7.7 93 0.5 CALM 0 0 0 0 1020.9 - 0.0
16/06:00am 8.8 7.9 7.7 93 0.5 W 2 6 1 3 1020.7 1020.7 0.0
16/05:30am 9.0 8.5 7.9 93 0.5 CALM 0 0 0 0 1020.4 - 0.0
16/05:00am 8.8 8.2 7.3 90 0.7 CALM 0 6 0 3 1020.2 - 0.0
16/04:30am 9.4 9.0 8.2 92 0.6 CALM 0 0 0 0 1020.1 - 0.0
16/04:00am 10.2 7.8 8.5 89 0.8 N 11 11 6 6 1020.0 - 0.0
16/03:30am 10.5 8.9 8.9 90 0.8 NNW 7 7 4 4 1020.3 - 0.0
16/03:00am 10.0 7.8 7.9 87 1.0 NW 9 9 5 5 1020.6 1020.6 0.0
16/02:30am 10.9 9.3 8.8 87 1.0 WNW 7 11 4 6 1020.8 - 0.0
16/02:00am 11.2 10.6 8.8 85 1.2 E 2 7 1 4 1021.0 - 0.0
16/01:30am 11.9 10.3 8.2 78 1.8 E 6 11 3 6 1021.3 - 0.0
16/01:00am 13.4 11.9 9.1 75 2.2 E 7 9 4 5 1021.4 - 0.0
16/12:30am 13.5 12.1 9.4 76 2.1 ESE 7 11 4 6 1021.5 - 0.0
16/12:00am 13.7 12.3 9.4 75 2.2 ENE 7 15 4 8 1021.3 1021.3 0.0
 
Date/Time
CST
Temp
°C
App
Temp
°C
Dew
Point
Rel
Hum
%
Delta-T
°C
Wind Press
QNH
hPa
Press
MSL
hPa
Rain
since 9 am
mm
Dir
 
Spd
km/h
Gust
km/h
Spd
kts
Gust
kts
15/11:30pm 13.7 11.9 9.4 75 2.2 E 9 15 5 8 1021.6 - 0.0
15/11:00pm 14.3 12.8 9.3 72 2.6 NNE 7 9 4 5 1021.7 - 0.0
15/10:30pm 14.3 12.8 9.1 71 2.6 E 7 11 4 6 1021.9 - 0.0
15/10:00pm 14.8 11.7 9.0 68 3.0 ESE 15 22 8 12 1022.2 - 0.0
15/09:30pm 14.7 13.1 8.6 67 3.1 E 7 15 4 8 1022.3 - 0.0
15/09:00pm 15.1 12.4 8.8 66 3.2 ESE 13 19 7 10 1022.1 1022.1 0.0
15/08:30pm 15.4 12.4 9.3 67 3.1 SE 15 20 8 11 1021.9 - 0.0
15/08:00pm 15.4 13.6 9.3 67 3.1 SE 9 15 5 8 1022.0 - 0.0
15/07:30pm 15.9 13.0 9.8 67 3.2 ESE 15 20 8 11 1021.8 - 0.0
15/07:00pm 15.6 15.2 11.2 75 2.4 E 4 7 2 4 1021.5 - 0.0
15/06:30pm 16.3 14.9 11.0 71 2.8 WSW 9 11 5 6 1021.6 - 0.0
15/06:00pm 18.0 15.5 10.9 63 3.8 WSW 15 20 8 11 1021.4 1021.4 0.0
15/05:30pm 19.2 17.0 10.7 58 4.6 SW 13 19 7 10 1021.1 - 0.0
15/05:00pm 20.2 16.7 10.9 55 5.1 SW 20 28 11 15 1021.2 - 0.0
15/04:30pm 22.0 20.3 8.2 41 7.2 ESE 7 13 4 7 1021.3 - 0.0
15/04:00pm 22.2 19.7 8.3 41 7.3 E 11 19 6 10 1020.7 - 0.0
15/03:30pm 22.4 20.3 8.1 40 7.5 ESE 9 17 5 9 1020.7 - 0.0
15/03:00pm 23.0 21.1 9.0 41 7.5 S 9 24 5 13 1020.9 1020.9 0.0
15/02:30pm 22.2 19.7 8.3 41 7.3 ESE 11 15 6 8 1021.1 - 0.0
15/02:00pm 21.9 19.2 8.8 43 7.0 SE 13 19 7 10 1021.1 - 0.0
15/01:30pm 22.1 19.2 8.2 41 7.3 ENE 13 22 7 12 1021.3 - 0.0
15/01:00pm 22.0 18.9 8.9 43 7.0 ESE 15 22 8 12 1021.5 - 0.0
15/12:30pm 21.6 18.9 8.8 44 6.8 ESE 13 22 7 12 1022.1 - 0.0
15/12:00pm 21.6 18.8 8.5 43 6.9 SE 13 20 7 11 1022.6 1022.6 0.0
15/11:30am 21.2 19.2 8.5 44 6.7 SE 9 17 5 9 1023.2 - 0.0
15/11:00am 21.3 17.3 8.9 45 6.6 SSE 20 28 11 15 1023.5 - 0.0
15/10:30am 20.9 18.2 8.9 46 6.3 ESE 13 22 7 12 1023.9 - 0.0
15/10:00am 20.3 18.4 8.9 48 6.0 ENE 9 19 5 10 1024.1 - 0.0
15/09:30am 19.1 17.0 8.4 50 5.5 E 9 15 5 8 1024.0 - 0.0
15/09:00am 18.2 16.2 8.7 54 4.9 ENE 9 15 5 8 1024.0 1024.0 0.0
15/08:30am 17.0 16.1 9.4 61 4.0 E 4 9 2 5 1024.0 - 0.0
15/08:00am 16.2 14.8 8.9 62 3.7 ESE 6 7 3 4 1023.8 - 0.0
15/07:30am 15.1 13.2 9.0 67 3.1 E 9 11 5 6 1023.6 - 0.0
15/07:00am 14.1 12.4 8.3 68 2.9 SE 7 11 4 6 1023.3 - 0.0
15/06:30am 13.7 12.1 7.9 68 2.9 SE 6 11 3 6 1023.0 - 0.0
15/06:00am 14.2 13.8 8.2 67 3.0 CALM 0 7 0 4 1022.7 1022.7 0.0
15/05:30am 13.2 12.0 7.9 70 2.6 WSW 4 7 2 4 1022.7 - 0.0
15/05:00am 13.1 12.7 8.4 73 2.3 CALM 0 7 0 4 1022.7 - 0.0
15/04:30am 12.8 11.8 8.7 76 2.0 SSE 4 11 2 6 1022.6 - 0.0
15/04:00am 14.0 12.6 9.6 75 2.3 S 7 13 4 7 1022.6 - 0.0
15/03:30am 13.6 11.5 9.6 77 2.0 SSW 11 15 6 8 1022.6 - 0.0
15/03:00am 13.9 12.6 9.9 77 2.1 S 7 11 4 6 1022.5 1022.5 0.0
15/02:30am 13.5 11.7 9.6 77 2.0 S 9 15 5 8 1022.7 - 0.0
15/02:00am 13.4 11.7 9.8 79 1.8 S 9 13 5 7 1022.8 - 0.0
15/01:30am 12.6 11.5 10.7 88 1.0 SSW 7 9 4 5 1023.0 - 0.0
15/01:00am 12.4 10.9 10.6 89 0.9 SSE 9 11 5 6 1022.9 - 0.0
15/12:30am 13.1 11.2 10.6 85 1.3 SSE 11 19 6 10 1023.0 - 0.0
15/12:00am 12.0 11.6 9.7 86 1.2 E 2 7 1 4 1023.1 1023.1 0.0
 
Date/Time
CST
Temp
°C
App
Temp
°C
Dew
Point
Rel
Hum
%
Delta-T
°C
Wind Press
QNH
hPa
Press
MSL
hPa
Rain
since 9 am
mm
Dir
 
Spd
km/h
Gust
km/h
Spd
kts
Gust
kts
14/11:30pm 11.9 10.2 9.8 87 1.1 S 9 11 5 6 1023.4 - 0.0
14/11:00pm 13.5 11.9 10.3 81 1.7 SSW 9 9 5 5 1023.6 - 0.0
14/10:30pm 12.4 10.4 8.7 78 1.8 SSW 9 11 5 6 1023.8 - 0.0
14/10:00pm 13.9 12.6 10.1 78 2.0 S 7 15 4 8 1023.8 - 0.0
14/09:30pm 12.8 10.7 9.8 82 1.5 SSW 11 11 6 6 1023.7 - 0.0
14/09:00pm 13.5 11.4 9.9 79 1.8 S 11 13 6 7 1023.5 1023.5 0.0
14/08:30pm 13.5 11.5 10.1 80 1.8 S 11 13 6 7 1023.2 - 0.0
14/08:00pm 14.2 11.8 10.2 77 2.1 S 13 15 7 8 1023.2 - 0.0
14/07:30pm 14.8 12.7 9.8 72 2.6 S 11 15 6 8 1023.2 - 0.0
14/07:00pm 16.6 13.2 10.7 68 3.1 S 19 26 10 14 1022.8 - 0.0
14/06:30pm 16.8 13.2 10.0 64 3.6 S 19 24 10 13 1022.4 - 0.0
14/06:00pm 17.6 13.9 9.5 59 4.2 S 19 26 10 14 1022.2 1022.2 0.0
14/05:30pm 18.7 14.8 9.5 55 4.9 SE 20 28 11 15 1021.8 - 0.0
14/05:00pm 19.9 15.6 9.2 50 5.7 SSE 22 32 12 17 1021.4 - 0.0
14/04:30pm 20.8 15.6 7.1 41 7.0 SE 24 33 13 18 1021.2 - 0.0
14/04:00pm 21.5 16.6 7.0 39 7.4 S 22 28 12 15 1021.0 - 0.0
14/03:30pm 21.7 16.7 4.7 33 8.3 SSE 20 28 11 15 1021.2 - 0.0
14/03:00pm 22.3 17.3 4.8 32 8.6 SE 20 35 11 19 1021.0 1021.0 0.0
14/02:30pm 22.8 17.9 3.9 29 9.2 ESE 19 26 10 14 1020.9 - 0.0
14/02:00pm 23.1 17.5 3.6 28 9.5 SSE 22 32 12 17 1020.8 - 0.0
14/01:30pm 22.6 16.8 4.6 31 8.9 S 24 33 13 18 1020.8 - 0.0
14/01:00pm 22.4 17.6 5.8 34 8.4 SE 20 30 11 16 1021.2 - 0.0
14/12:30pm 22.0 16.4 7.0 38 7.7 SE 26 33 14 18 1021.7 - 0.0
14/12:00pm 21.9 17.4 7.0 38 7.6 SSE 20 32 11 17 1022.3 1022.3 0.0
14/11:30am 21.6 17.0 6.3 37 7.7 SE 20 32 11 17 1022.7 - 0.0
14/11:00am 21.7 16.5 7.2 39 7.5 SE 24 33 13 18 1022.8 - 0.0
14/10:30am 21.6 16.7 7.1 39 7.4 ESE 22 35 12 19 1022.7 - 0.0
14/10:00am 21.1 16.1 6.6 39 7.3 SE 22 32 12 17 1022.9 - 0.0
14/09:30am 19.6 17.8 8.0 47 6.0 SSE 7 13 4 7 1023.2 - 0.0
14/09:00am 19.1 15.7 9.3 53 5.1 SE 17 22 9 12 1023.2 1023.2 0.0
14/08:30am 17.2 14.0 8.4 56 4.5 SE 15 22 8 12 1023.2 - 0.0
14/08:00am 15.9 12.2 9.6 66 3.3 SSE 19 24 10 13 1023.1 - 0.0
14/07:30am 14.9 12.1 9.9 72 2.6 SSE 15 20 8 11 1022.8 - 0.0
14/07:00am 13.6 10.2 9.3 75 2.2 SE 17 20 9 11 1022.5 - 0.0
14/06:30am 11.0 10.2 9.6 91 0.7 S 4 11 2 6 1022.2 - 0.0
14/06:00am 11.4 11.0 9.8 90 0.8 W 2 6 1 3 1022.0 1022.0 0.0
14/05:30am 11.9 11.1 9.8 87 1.1 SW 4 7 2 4 1022.0 - 0.0
14/05:00am 12.3 12.5 10.4 88 1.0 CALM 0 0 0 0 1021.9 - 0.0
14/04:30am 12.8 11.8 10.2 84 1.3 WNW 6 9 3 5 1021.5 - 0.0
14/04:00am 13.6 13.8 10.6 82 1.6 CALM 0 0 0 0 1021.4 - 0.0
14/03:30am 13.1 12.8 10.1 82 1.5 SSE 2 9 1 5 1021.3 - 0.0
14/03:00am 13.6 11.7 10.6 82 1.6 SE 11 15 6 8 1021.3 1021.3 0.0
14/02:30am 14.6 13.2 11.0 79 1.9 SSE 9 13 5 7 1021.4 - 0.0
14/02:00am 16.4 13.7 11.8 74 2.5 SSE 17 20 9 11 1021.6 - 0.0
14/01:30am 16.6 14.6 12.6 77 2.2 SSE 15 20 8 11 1021.6 - 0.0
14/01:00am 16.3 15.1 12.7 79 2.0 S 11 15 6 8 1021.5 - 0.0
14/12:30am 15.9 14.6 12.6 81 1.8 S 11 17 6 9 1021.5 - 0.0
14/12:00am 15.7 14.3 12.3 80 1.9 S 11 22 6 12 1021.6 1021.6 0.0
 
Date/Time
CST
Temp
°C
App
Temp
°C
Dew
Point
Rel
Hum
%
Delta-T
°C
Wind Press
QNH
hPa
Press
MSL
hPa
Rain
since 9 am
mm
Dir
 
Spd
km/h
Gust
km/h
Spd
kts
Gust
kts
13/11:30pm 15.1 14.0 11.9 81 1.7 S 9 13 5 7 1021.8 - 0.0
13/11:00pm 15.0 15.1 11.6 80 1.8 S 2 7 1 4 1022.1 - 0.0
13/10:30pm 14.1 13.1 10.9 81 1.7 SSW 7 9 4 5 1022.4 - 0.0
13/10:00pm 13.5 12.4 10.7 83 1.5 SSW 7 9 4 5 1022.5 - 0.0
13/09:30pm 13.7 12.2 10.7 82 1.6 SSW 9 11 5 6 1022.5 - 0.0
13/09:00pm 14.3 12.8 10.7 79 1.9 SSW 9 11 5 6 1022.5 1022.5 0.0
13/08:30pm 14.2 13.0 10.4 78 2.0 S 7 11 4 6 1022.5 - 0.0
13/08:00pm 15.0 12.3 10.4 74 2.4 S 15 17 8 9 1022.3 - 0.0
13/07:30pm 16.2 12.8 10.5 69 3.0 S 19 22 10 12 1022.0 - 0.0
13/07:00pm 16.6 12.9 10.0 65 3.5 S 20 26 11 14 1021.9 - 0.0
13/06:30pm 17.0 12.7 9.2 60 4.0 SSE 22 28 12 15 1021.6 - 0.0
13/06:00pm 17.1 13.2 9.3 60 4.0 SSE 20 30 11 16 1021.2 1021.2 0.0
13/05:30pm 18.3 14.1 9.6 57 4.6 SE 22 28 12 15 1020.8 - 0.0
13/05:00pm 19.0 15.5 10.3 57 4.7 SSE 19 26 10 14 1020.5 - 0.0
13/04:30pm 20.2 16.6 10.0 52 5.5 SE 19 26 10 14 1020.2 - 0.0
13/04:00pm 21.2 17.6 10.4 50 5.9 S 20 26 11 14 1019.9 - 0.0
13/03:30pm 21.2 16.9 9.4 47 6.3 SSE 22 30 12 16 1019.8 - 0.0
13/03:00pm 21.1 17.0 10.0 49 6.0 SSE 22 32 12 17 1019.7 1019.7 0.0
13/02:30pm 22.6 19.3 9.4 43 7.1 S 17 26 9 14 1019.6 - 0.0
13/02:00pm 22.0 18.0 9.2 44 6.8 SSE 20 28 11 15 1019.8 - 0.0

Other Formats:

Comma delimited format used in spreadsheet applications
http://www.bom.gov.au/fwo/IDS60801/IDS60801.95677.axf

JavaScript Object Notation format (JSON) in row-major order
http://www.bom.gov.au/fwo/IDS60801/IDS60801.95677.json